createdAt,value
2019-02-27T00:00:04.448Z,293.17
2019-02-27T00:01:02.801Z,293.25
2019-02-27T00:02:03.064Z,293.33
2019-02-27T00:03:03.324Z,292.91
2019-02-27T00:04:03.563Z,292.69
2019-02-27T00:05:05.901Z,292.56
2019-02-27T00:06:04.275Z,292.91
2019-02-27T00:07:04.391Z,292.68
2019-02-27T00:08:04.653Z,293.35
2019-02-27T00:09:04.913Z,293.73
2019-02-27T00:10:06.186Z,293.61
2019-02-27T00:11:05.459Z,293.39
2019-02-27T00:12:05.708Z,292.52
2019-02-27T00:13:05.979Z,293.35
2019-02-27T00:14:06.345Z,293.51
2019-02-27T00:15:06.495Z,293.31
2019-02-27T00:16:10.795Z,293.86
2019-02-27T00:17:08.225Z,293.29
2019-02-27T00:18:07.330Z,293.33
2019-02-27T00:19:07.523Z,293.61
2019-02-27T00:20:07.805Z,293.86
2019-02-27T00:21:10.489Z,294.45
2019-02-27T00:22:08.384Z,293.68
2019-02-27T00:23:08.583Z,292.34
2019-02-27T00:24:08.832Z,293.00
2019-02-27T00:25:09.078Z,293.12
2019-02-27T00:26:09.562Z,293.10
2019-02-27T00:27:09.614Z,293.13
2019-02-27T00:28:09.896Z,293.67
2019-02-27T00:29:10.139Z,293.67
2019-02-27T00:30:10.442Z,293.53
2019-02-27T00:31:11.435Z,293.63
2019-02-27T00:32:10.907Z,293.18
2019-02-27T00:33:11.185Z,292.34
2019-02-27T00:34:11.426Z,293.41
2019-02-27T00:35:11.691Z,293.40
2019-02-27T00:36:12.404Z,292.84
2019-02-27T00:37:12.204Z,292.80
2019-02-27T00:38:12.522Z,293.09
2019-02-27T00:39:12.781Z,293.12
2019-02-27T00:40:12.996Z,292.62
2019-02-27T00:41:13.283Z,292.56
2019-02-27T00:42:13.501Z,292.56
2019-02-27T00:43:13.797Z,292.59
2019-02-27T00:44:14.039Z,292.63
2019-02-27T00:45:14.301Z,293.16
2019-02-27T00:46:14.606Z,292.80
2019-02-27T00:47:17.007Z,292.94
2019-02-27T00:48:15.128Z,292.03
2019-02-27T00:49:15.371Z,292.95
2019-02-27T00:50:15.633Z,292.88
2019-02-27T00:51:15.929Z,295.14
2019-02-27T00:52:18.079Z,293.38
2019-02-27T00:53:16.418Z,292.86
2019-02-27T00:54:16.682Z,292.90
2019-02-27T00:55:17.058Z,293.19
2019-02-27T00:56:17.225Z,292.31
2019-02-27T00:57:20.547Z,292.88
2019-02-27T00:58:17.717Z,292.54
2019-02-27T00:59:17.968Z,292.64
2019-02-27T01:00:18.241Z,292.41
2019-02-27T01:01:18.535Z,292.42
2019-02-27T01:02:19.983Z,292.68
2019-02-27T01:03:19.042Z,292.69
2019-02-27T01:04:19.247Z,292.93
2019-02-27T01:05:19.533Z,293.35
2019-02-27T01:06:19.827Z,292.52
2019-02-27T01:07:20.708Z,292.85
2019-02-27T01:08:20.322Z,292.38
2019-02-27T01:09:20.580Z,292.62
2019-02-27T01:10:20.817Z,292.21
2019-02-27T01:11:21.160Z,292.42
2019-02-27T01:12:22.907Z,293.05
2019-02-27T01:13:21.612Z,293.01
2019-02-27T01:14:21.887Z,293.20
2019-02-27T01:15:22.133Z,293.68
2019-02-27T01:16:22.444Z,293.60
2019-02-27T01:17:23.878Z,293.35
2019-02-27T01:18:22.947Z,293.18
2019-02-27T01:19:23.263Z,292.62
2019-02-27T01:20:23.528Z,292.89
2019-02-27T01:21:23.771Z,293.10
2019-02-27T01:22:24.011Z,292.99
2019-02-27T01:23:24.271Z,293.15
2019-02-27T01:24:24.551Z,292.03
2019-02-27T01:25:24.803Z,292.74
2019-02-27T01:26:25.098Z,292.67
2019-02-27T01:27:25.303Z,292.36
2019-02-27T01:28:25.693Z,292.88
2019-02-27T01:29:25.855Z,292.77
2019-02-27T01:30:26.095Z,292.46
2019-02-27T01:31:26.369Z,292.58
2019-02-27T01:32:28.864Z,292.23
2019-02-27T01:33:26.888Z,292.53
2019-02-27T01:34:27.166Z,292.40
2019-02-27T01:35:27.414Z,291.72
2019-02-27T01:36:27.773Z,292.10
2019-02-27T01:37:31.298Z,291.90
2019-02-27T01:38:28.182Z,292.59
2019-02-27T01:39:28.463Z,291.37
2019-02-27T01:40:28.710Z,291.98
2019-02-27T01:41:28.985Z,291.50
2019-02-27T01:42:32.184Z,291.99
2019-02-27T01:43:29.475Z,292.53
2019-02-27T01:44:29.780Z,292.08
2019-02-27T01:45:29.996Z,291.99
2019-02-27T01:46:30.282Z,292.23
2019-02-27T01:47:30.543Z,293.67
2019-02-27T01:48:30.786Z,293.29
2019-02-27T01:49:31.058Z,293.15
2019-02-27T01:50:31.307Z,293.50
2019-02-27T01:51:31.597Z,293.45
2019-02-27T01:52:33.940Z,293.56
2019-02-27T01:53:32.107Z,292.93
2019-02-27T01:54:32.391Z,293.27
2019-02-27T01:55:32.622Z,293.45
2019-02-27T01:56:32.924Z,293.35
2019-02-27T01:57:34.096Z,293.46
2019-02-27T01:58:33.419Z,293.90
2019-02-27T01:59:33.708Z,293.85
2019-02-27T02:00:33.966Z,294.33
2019-02-27T02:01:34.317Z,293.71
2019-02-27T02:02:34.882Z,293.10
2019-02-27T02:03:34.723Z,293.51
2019-02-27T02:04:35.003Z,293.07
2019-02-27T02:05:35.248Z,293.41
2019-02-27T02:06:35.528Z,293.49
2019-02-27T02:07:39.871Z,294.01
2019-02-27T02:08:36.046Z,293.98
2019-02-27T02:09:36.473Z,293.70
2019-02-27T02:10:36.577Z,294.08
2019-02-27T02:11:36.837Z,293.90
2019-02-27T02:12:39.086Z,293.72
2019-02-27T02:13:37.387Z,292.64
2019-02-27T02:14:37.667Z,292.98
2019-02-27T02:15:37.910Z,293.34
2019-02-27T02:16:38.179Z,292.87
2019-02-27T02:17:40.977Z,292.54
2019-02-27T02:18:38.698Z,292.77
2019-02-27T02:19:38.982Z,292.74
2019-02-27T02:20:39.222Z,292.27
2019-02-27T02:21:39.497Z,292.86
2019-02-27T02:22:41.280Z,292.53
2019-02-27T02:23:40.028Z,292.46
2019-02-27T02:24:40.329Z,292.37
2019-02-27T02:25:40.623Z,292.26
2019-02-27T02:26:40.820Z,292.90
2019-02-27T02:27:41.571Z,292.49
2019-02-27T02:28:41.323Z,292.58
2019-02-27T02:29:41.698Z,292.94
2019-02-27T02:30:41.876Z,293.26
2019-02-27T02:31:42.586Z,292.99
2019-02-27T02:32:42.424Z,292.80
2019-02-27T02:33:42.690Z,293.34
2019-02-27T02:34:42.961Z,292.88
2019-02-27T02:35:43.189Z,292.57
2019-02-27T02:36:43.458Z,292.85
2019-02-27T02:37:43.730Z,292.82
2019-02-27T02:38:43.972Z,292.97
2019-02-27T02:39:44.254Z,292.10
2019-02-27T02:40:44.479Z,291.87
2019-02-27T02:41:47.078Z,292.39
2019-02-27T02:42:45.147Z,292.05
2019-02-27T02:43:45.275Z,292.18
2019-02-27T02:44:45.543Z,292.42
2019-02-27T02:45:45.802Z,291.82
2019-02-27T02:46:46.335Z,292.28
2019-02-27T02:47:46.356Z,291.64
2019-02-27T02:48:46.598Z,292.22
2019-02-27T02:49:46.874Z,292.22
2019-02-27T02:50:47.227Z,292.28
2019-02-27T02:51:47.417Z,292.51
2019-02-27T02:52:47.652Z,291.96
2019-02-27T02:53:48.800Z,292.10
2019-02-27T02:54:48.169Z,291.97
2019-02-27T02:55:49.253Z,291.90
2019-02-27T02:56:48.716Z,291.76
2019-02-27T02:57:48.960Z,292.24
2019-02-27T02:58:49.273Z,291.63
2019-02-27T02:59:49.478Z,292.94
2019-02-27T03:00:49.693Z,291.84
2019-02-27T03:01:50.173Z,292.48
2019-02-27T03:02:50.255Z,292.20
2019-02-27T03:03:50.504Z,292.47
2019-02-27T03:04:50.783Z,292.52
2019-02-27T03:05:51.032Z,292.36
2019-02-27T03:06:51.394Z,292.55
2019-02-27T03:07:51.550Z,292.28
2019-02-27T03:08:55.010Z,292.20
2019-02-27T03:09:52.077Z,291.93
2019-02-27T03:10:52.536Z,292.24
2019-02-27T03:11:54.832Z,291.67
2019-02-27T03:12:52.894Z,292.42
2019-02-27T03:13:53.092Z,291.48
2019-02-27T03:14:54.171Z,291.71
2019-02-27T03:15:53.686Z,292.78
2019-02-27T03:16:53.912Z,291.73
2019-02-27T03:17:55.070Z,292.31
2019-02-27T03:18:54.441Z,291.77
2019-02-27T03:19:54.699Z,291.35
2019-02-27T03:20:54.992Z,291.62
2019-02-27T03:21:55.253Z,291.87
2019-02-27T03:22:55.561Z,291.63
2019-02-27T03:23:55.888Z,291.65
2019-02-27T03:24:56.066Z,292.26
2019-02-27T03:25:56.337Z,291.65
2019-02-27T03:26:56.600Z,291.87
2019-02-27T03:27:56.873Z,292.23
2019-02-27T03:28:57.130Z,291.98
2019-02-27T03:29:57.366Z,291.96
2019-02-27T03:30:57.687Z,291.72
2019-02-27T03:32:00.163Z,291.84
2019-02-27T03:32:58.202Z,291.63
2019-02-27T03:34:05.802Z,291.47
2019-02-27T03:34:59.691Z,291.51
2019-02-27T03:35:59.878Z,291.65
2019-02-27T03:36:59.220Z,291.96
2019-02-27T03:37:59.507Z,291.82
2019-02-27T03:39:00.167Z,291.45
2019-02-27T03:40:00.225Z,291.46
2019-02-27T03:41:00.279Z,292.24
2019-02-27T03:42:00.563Z,291.93
2019-02-27T03:43:00.840Z,291.69
2019-02-27T03:44:01.087Z,291.70
2019-02-27T03:45:01.318Z,291.23
2019-02-27T03:46:03.090Z,291.28
2019-02-27T03:47:01.831Z,291.67
2019-02-27T03:48:02.202Z,291.78
2019-02-27T03:49:03.569Z,291.55
2019-02-27T03:50:02.627Z,291.45
2019-02-27T03:51:02.903Z,291.81
2019-02-27T03:52:03.128Z,291.48
2019-02-27T03:53:03.428Z,291.40
2019-02-27T03:54:03.716Z,291.60
2019-02-27T03:55:03.947Z,292.15
2019-02-27T03:56:08.698Z,292.02
2019-02-27T03:57:05.488Z,292.06
2019-02-27T03:58:04.752Z,291.54
2019-02-27T03:59:06.065Z,291.80
2019-02-27T04:00:05.280Z,291.79
2019-02-27T04:01:05.539Z,291.13
2019-02-27T04:02:06.159Z,291.61
2019-02-27T04:03:06.074Z,291.77
2019-02-27T04:04:06.339Z,291.65
2019-02-27T04:05:07.375Z,291.53
2019-02-27T04:06:06.856Z,291.64
2019-02-27T04:07:07.107Z,291.23
2019-02-27T04:08:08.304Z,292.06
2019-02-27T04:09:07.628Z,292.15
2019-02-27T04:10:08.346Z,291.80
2019-02-27T04:11:08.174Z,291.91
2019-02-27T04:12:08.426Z,291.87
2019-02-27T04:13:08.834Z,292.22
2019-02-27T04:14:08.945Z,292.33
2019-02-27T04:15:09.237Z,291.70
2019-02-27T04:16:09.494Z,291.90
2019-02-27T04:17:09.741Z,291.65
2019-02-27T04:18:10.021Z,292.68
2019-02-27T04:19:10.248Z,291.88
2019-02-27T04:20:14.602Z,292.44
2019-02-27T04:21:10.894Z,292.10
2019-02-27T04:22:11.047Z,292.05
2019-02-27T04:23:12.434Z,292.07
2019-02-27T04:24:11.583Z,291.76
2019-02-27T04:25:11.831Z,292.38
2019-02-27T04:26:12.132Z,291.87
2019-02-27T04:27:12.381Z,292.38
2019-02-27T04:28:12.636Z,291.85
2019-02-27T04:29:12.952Z,292.20
2019-02-27T04:30:14.700Z,292.01
2019-02-27T04:31:13.436Z,292.99
2019-02-27T04:32:13.682Z,292.37
2019-02-27T04:33:13.956Z,292.21
2019-02-27T04:34:14.232Z,292.15
2019-02-27T04:35:14.479Z,291.86
2019-02-27T04:36:14.767Z,291.46
2019-02-27T04:37:15.026Z,292.49
2019-02-27T04:38:15.340Z,292.15
2019-02-27T04:39:15.540Z,291.70
2019-02-27T04:40:15.785Z,291.71
2019-02-27T04:41:17.807Z,292.44
2019-02-27T04:42:16.290Z,292.00
2019-02-27T04:43:16.568Z,291.67
2019-02-27T04:44:16.845Z,291.55
2019-02-27T04:45:17.096Z,291.49
2019-02-27T04:46:18.890Z,292.56
2019-02-27T04:47:17.616Z,292.50
2019-02-27T04:48:17.873Z,292.16
2019-02-27T04:49:18.379Z,291.54
2019-02-27T04:50:18.396Z,292.01
2019-02-27T04:51:18.672Z,291.86
2019-02-27T04:52:18.942Z,291.23
2019-02-27T04:53:19.160Z,291.55
2019-02-27T04:54:19.537Z,291.60
2019-02-27T04:55:19.686Z,292.23
2019-02-27T04:56:23.105Z,291.81
2019-02-27T04:57:20.225Z,294.12
2019-02-27T04:58:20.465Z,294.33
2019-02-27T04:59:20.771Z,294.17
2019-02-27T05:00:21.002Z,292.75
2019-02-27T05:01:21.285Z,292.63
2019-02-27T05:02:21.606Z,291.77
2019-02-27T05:03:21.773Z,292.49
2019-02-27T05:04:22.037Z,292.63
2019-02-27T05:05:22.300Z,292.16
2019-02-27T05:06:22.583Z,291.81
2019-02-27T05:07:22.831Z,292.15
2019-02-27T05:08:26.925Z,291.43
2019-02-27T05:09:23.357Z,293.35
2019-02-27T05:10:23.639Z,292.51
2019-02-27T05:11:23.869Z,292.65
2019-02-27T05:12:24.130Z,292.33
2019-02-27T05:13:24.393Z,292.01
2019-02-27T05:14:24.789Z,291.56
2019-02-27T05:15:24.913Z,292.10
2019-02-27T05:16:25.179Z,292.74
2019-02-27T05:17:25.454Z,292.22
2019-02-27T05:18:29.240Z,293.02
2019-02-27T05:19:26.084Z,292.59
2019-02-27T05:20:26.204Z,292.70
2019-02-27T05:21:26.484Z,292.54
2019-02-27T05:22:27.323Z,292.47
2019-02-27T05:23:27.006Z,292.56
2019-02-27T05:24:27.284Z,292.92
2019-02-27T05:25:27.526Z,292.87
2019-02-27T05:26:27.845Z,292.44
2019-02-27T05:27:28.188Z,293.10
2019-02-27T05:28:28.313Z,292.48
2019-02-27T05:29:28.595Z,292.79
2019-02-27T05:30:28.836Z,292.65
2019-02-27T05:31:29.093Z,292.99
2019-02-27T05:32:29.385Z,292.63
2019-02-27T05:33:35.638Z,292.63
2019-02-27T05:34:30.928Z,292.17
2019-02-27T05:35:30.261Z,294.98
2019-02-27T05:36:31.621Z,295.90
2019-02-27T05:37:30.705Z,295.21
2019-02-27T05:38:30.963Z,295.88
2019-02-27T05:39:31.240Z,294.53
2019-02-27T05:40:31.488Z,294.00
2019-02-27T05:41:32.911Z,293.90
2019-02-27T05:42:32.044Z,293.63
2019-02-27T05:43:32.302Z,295.99
2019-02-27T05:44:32.530Z,294.53
2019-02-27T05:45:32.785Z,293.71
2019-02-27T05:46:33.050Z,294.53
2019-02-27T05:47:33.359Z,293.90
2019-02-27T05:48:33.562Z,293.52
2019-02-27T05:49:33.824Z,293.14
2019-02-27T05:50:34.274Z,293.12
2019-02-27T05:51:34.435Z,292.58
2019-02-27T05:52:34.736Z,293.14
2019-02-27T05:53:34.893Z,292.78
2019-02-27T05:54:35.173Z,292.99
2019-02-27T05:55:39.048Z,292.82
2019-02-27T05:56:35.680Z,293.83
2019-02-27T05:57:35.973Z,293.36
2019-02-27T05:58:36.230Z,293.00
2019-02-27T05:59:36.495Z,293.28
2019-02-27T06:00:37.001Z,293.63
2019-02-27T06:01:38.139Z,293.63
2019-02-27T06:02:37.270Z,293.20
2019-02-27T06:03:37.491Z,292.61
2019-02-27T06:04:37.769Z,293.36
2019-02-27T06:05:38.010Z,293.22
2019-02-27T06:06:38.260Z,292.93
2019-02-27T06:07:38.549Z,294.14
2019-02-27T06:08:38.869Z,293.77
2019-02-27T06:09:41.368Z,293.45
2019-02-27T06:10:39.293Z,294.15
2019-02-27T06:11:39.575Z,294.07
2019-02-27T06:12:40.715Z,294.03
2019-02-27T06:13:40.121Z,293.12
2019-02-27T06:14:40.388Z,293.89
2019-02-27T06:15:40.629Z,293.78
2019-02-27T06:16:41.037Z,293.83
2019-02-27T06:17:43.354Z,293.52
2019-02-27T06:18:41.410Z,293.33
2019-02-27T06:19:41.677Z,293.31
2019-02-27T06:20:42.547Z,293.02
2019-02-27T06:21:42.180Z,293.79
2019-02-27T06:22:42.457Z,293.69
2019-02-27T06:23:42.696Z,293.25
2019-02-27T06:24:45.507Z,293.47
2019-02-27T06:25:43.208Z,293.64
2019-02-27T06:26:43.473Z,293.66
2019-02-27T06:27:43.748Z,293.94
2019-02-27T06:28:43.992Z,294.03
2019-02-27T06:29:44.260Z,293.64
2019-02-27T06:30:44.517Z,293.68
2019-02-27T06:31:44.774Z,294.08
2019-02-27T06:32:45.111Z,293.38
2019-02-27T06:33:45.855Z,294.24
2019-02-27T06:34:45.567Z,294.46
2019-02-27T06:35:45.820Z,294.38
2019-02-27T06:36:46.082Z,294.31
2019-02-27T06:37:50.325Z,293.19
2019-02-27T06:38:46.625Z,294.70
2019-02-27T06:39:46.877Z,296.77
2019-02-27T06:40:47.124Z,296.43
2019-02-27T06:41:49.712Z,295.60
2019-02-27T06:42:47.666Z,295.30
2019-02-27T06:43:47.915Z,294.99
2019-02-27T06:44:48.151Z,294.71
2019-02-27T06:45:48.445Z,294.06
2019-02-27T06:46:51.132Z,293.97
2019-02-27T06:47:48.987Z,294.13
2019-02-27T06:48:49.242Z,295.15
2019-02-27T06:49:51.833Z,294.65
2019-02-27T06:50:49.770Z,294.61
2019-02-27T06:51:50.026Z,295.07
2019-02-27T06:52:50.311Z,294.82
2019-02-27T06:53:50.562Z,294.40
2019-02-27T06:54:52.290Z,294.58
2019-02-27T06:55:51.076Z,294.70
2019-02-27T06:56:51.337Z,294.54
2019-02-27T06:57:51.726Z,295.15
2019-02-27T06:58:55.201Z,295.27
2019-02-27T06:59:52.061Z,295.54
2019-02-27T07:00:52.315Z,294.94
2019-02-27T07:01:52.570Z,295.76
2019-02-27T07:02:55.268Z,296.24
2019-02-27T07:03:53.105Z,296.27
2019-02-27T07:04:53.338Z,295.20
2019-02-27T07:05:53.873Z,295.12
2019-02-27T07:06:55.352Z,295.53
2019-02-27T07:07:54.177Z,295.36
2019-02-27T07:08:54.435Z,294.96
2019-02-27T07:09:54.683Z,296.01
2019-02-27T07:10:57.497Z,296.06
2019-02-27T07:11:55.200Z,295.23
2019-02-27T07:12:55.495Z,294.90
2019-02-27T07:13:55.791Z,294.32
2019-02-27T07:14:56.040Z,294.65
2019-02-27T07:15:56.274Z,295.22
2019-02-27T07:16:57.357Z,296.17
2019-02-27T07:17:56.830Z,296.35
2019-02-27T07:18:57.079Z,296.15
2019-02-27T07:19:57.320Z,296.64
2019-02-27T07:20:58.315Z,296.23
2019-02-27T07:21:57.848Z,295.50
2019-02-27T07:22:58.208Z,295.68
2019-02-27T07:23:58.656Z,295.38
2019-02-27T07:24:58.625Z,294.75
2019-02-27T07:25:58.907Z,295.06
2019-02-27T07:26:59.137Z,295.34
2019-02-27T07:27:59.402Z,295.05
2019-02-27T07:28:59.681Z,294.28
2019-02-27T07:29:59.946Z,294.80
2019-02-27T07:31:00.334Z,294.83
2019-02-27T07:32:00.454Z,295.10
2019-02-27T07:33:00.711Z,294.84
2019-02-27T07:34:00.993Z,294.53
2019-02-27T07:35:01.255Z,294.83
2019-02-27T07:36:03.569Z,295.04
2019-02-27T07:37:01.773Z,294.41
2019-02-27T07:38:02.051Z,294.82
2019-02-27T07:39:02.339Z,295.03
2019-02-27T07:40:02.539Z,293.88
2019-02-27T07:41:02.821Z,295.57
2019-02-27T07:42:03.063Z,295.29
2019-02-27T07:43:05.706Z,294.84
2019-02-27T07:44:03.603Z,295.84
2019-02-27T07:45:03.841Z,296.23
2019-02-27T07:46:04.123Z,295.65
2019-02-27T07:47:04.440Z,295.48
2019-02-27T07:48:04.618Z,295.63
2019-02-27T07:49:04.902Z,294.82
2019-02-27T07:50:06.197Z,295.12
2019-02-27T07:51:05.420Z,294.97
2019-02-27T07:52:05.676Z,295.05
2019-02-27T07:53:05.939Z,295.93
2019-02-27T07:54:06.245Z,295.08
2019-02-27T07:55:18.638Z,295.52
2019-02-27T07:56:07.798Z,295.22
2019-02-27T07:57:07.000Z,298.40
2019-02-27T07:58:07.259Z,297.81
2019-02-27T07:59:07.552Z,297.55
2019-02-27T08:00:07.770Z,297.00
2019-02-27T08:01:08.057Z,296.92
2019-02-27T08:02:08.283Z,297.44
2019-02-27T08:03:09.436Z,297.00
2019-02-27T08:04:08.992Z,295.98
2019-02-27T08:05:09.085Z,296.46
2019-02-27T08:06:09.590Z,296.66
2019-02-27T08:07:10.046Z,296.92
2019-02-27T08:08:09.861Z,295.58
2019-02-27T08:09:10.143Z,296.64
2019-02-27T08:10:10.595Z,296.15
2019-02-27T08:11:13.414Z,296.07
2019-02-27T08:12:10.988Z,296.28
2019-02-27T08:13:11.157Z,296.79
2019-02-27T08:14:12.896Z,296.36
2019-02-27T08:15:13.455Z,296.41
2019-02-27T08:16:11.960Z,296.72
2019-02-27T08:17:17.672Z,296.96
2019-02-27T08:18:13.525Z,297.82
2019-02-27T08:19:12.737Z,296.95
2019-02-27T08:20:13.046Z,297.02
2019-02-27T08:21:13.279Z,296.65
2019-02-27T08:22:13.513Z,296.62
2019-02-27T08:23:15.474Z,296.41
2019-02-27T08:24:14.445Z,297.27
2019-02-27T08:25:14.289Z,296.94
2019-02-27T08:26:14.580Z,296.64
2019-02-27T08:27:14.823Z,296.21
2019-02-27T08:28:15.146Z,297.41
2019-02-27T08:29:15.364Z,296.64
2019-02-27T08:30:15.600Z,296.60
2019-02-27T08:31:15.879Z,296.16
2019-02-27T08:32:16.128Z,296.29
2019-02-27T08:33:16.395Z,296.67
2019-02-27T08:34:16.673Z,296.45
2019-02-27T08:35:16.931Z,296.85
2019-02-27T08:36:17.208Z,296.75
2019-02-27T08:37:17.536Z,296.79
2019-02-27T08:38:17.697Z,297.17
2019-02-27T08:39:17.991Z,296.69
2019-02-27T08:40:18.226Z,296.46
2019-02-27T08:41:18.481Z,296.13
2019-02-27T08:42:18.738Z,296.31
2019-02-27T08:43:19.000Z,295.15
2019-02-27T08:44:19.284Z,295.19
2019-02-27T08:45:20.490Z,296.54
2019-02-27T08:46:19.786Z,296.39
2019-02-27T08:47:20.043Z,296.21
2019-02-27T08:48:20.304Z,296.49
2019-02-27T08:49:24.024Z,296.28
2019-02-27T08:50:20.837Z,296.26
2019-02-27T08:51:21.095Z,296.35
2019-02-27T08:52:21.327Z,296.05
2019-02-27T08:53:25.838Z,296.19
2019-02-27T08:54:22.875Z,296.75
2019-02-27T08:55:22.638Z,296.04
2019-02-27T08:56:22.383Z,296.30
2019-02-27T08:57:22.635Z,295.76
2019-02-27T08:58:22.919Z,295.96
2019-02-27T08:59:23.196Z,296.16
2019-02-27T09:00:23.520Z,296.67
2019-02-27T09:01:23.752Z,296.58
2019-02-27T09:02:24.159Z,296.00
2019-02-27T09:03:24.214Z,295.78
2019-02-27T09:04:24.504Z,295.88
2019-02-27T09:05:24.771Z,296.19
2019-02-27T09:06:27.340Z,295.57
2019-02-27T09:07:25.281Z,296.04
2019-02-27T09:08:25.529Z,295.84
2019-02-27T09:09:25.823Z,295.93
2019-02-27T09:10:26.855Z,295.43
2019-02-27T09:11:26.312Z,295.86
2019-02-27T09:12:26.593Z,295.85
2019-02-27T09:13:26.832Z,296.25
2019-02-27T09:14:27.110Z,296.12
2019-02-27T09:15:27.341Z,297.05
2019-02-27T09:16:27.623Z,295.93
2019-02-27T09:17:27.949Z,295.72
2019-02-27T09:18:28.253Z,295.18
2019-02-27T09:19:28.400Z,295.61
2019-02-27T09:20:28.656Z,296.43
2019-02-27T09:21:28.950Z,296.98
2019-02-27T09:22:29.216Z,295.93
2019-02-27T09:23:29.455Z,295.34
2019-02-27T09:24:29.733Z,294.96
2019-02-27T09:25:29.985Z,295.25
2019-02-27T09:26:30.306Z,296.41
2019-02-27T09:27:33.024Z,294.69
2019-02-27T09:28:30.758Z,294.75
2019-02-27T09:29:31.037Z,296.08
2019-02-27T09:30:31.266Z,295.03
2019-02-27T09:31:31.541Z,295.74
2019-02-27T09:32:31.817Z,296.09
2019-02-27T09:33:38.581Z,294.94
2019-02-27T09:34:33.450Z,292.88
2019-02-27T09:35:34.501Z,293.21
2019-02-27T09:36:33.850Z,294.68
2019-02-27T09:37:33.125Z,292.56
2019-02-27T09:38:33.365Z,294.33
2019-02-27T09:39:35.038Z,292.44
2019-02-27T09:40:38.152Z,292.60
2019-02-27T09:41:34.140Z,292.02
2019-02-27T09:42:34.445Z,292.74
2019-02-27T09:43:34.667Z,293.16
2019-02-27T09:44:36.544Z,291.56
2019-02-27T09:45:35.370Z,292.83
2019-02-27T09:46:35.443Z,291.12
2019-02-27T09:47:35.695Z,291.40
2019-02-27T09:48:35.951Z,292.23
2019-02-27T09:49:37.907Z,292.63
2019-02-27T09:50:36.524Z,291.78
2019-02-27T09:51:36.792Z,291.44
2019-02-27T09:52:37.013Z,292.03
2019-02-27T09:53:37.471Z,293.02
2019-02-27T09:54:37.538Z,292.02
2019-02-27T09:55:37.786Z,292.23
2019-02-27T09:56:38.052Z,298.55
2019-02-27T09:57:38.316Z,292.40
2019-02-27T09:58:38.576Z,290.98
2019-02-27T09:59:39.987Z,291.52
2019-02-27T10:00:39.110Z,289.45
2019-02-27T10:01:39.365Z,289.97
2019-02-27T10:02:39.645Z,290.51
2019-02-27T10:03:39.883Z,291.20
2019-02-27T10:04:40.177Z,291.18
2019-02-27T10:05:40.885Z,292.25
2019-02-27T10:06:42.749Z,291.82
2019-02-27T10:07:41.075Z,292.55
2019-02-27T10:08:41.185Z,291.78
2019-02-27T10:09:41.458Z,290.33
2019-02-27T10:10:44.853Z,289.35
2019-02-27T10:11:42.046Z,290.73
2019-02-27T10:12:42.372Z,289.77
2019-02-27T10:13:42.507Z,292.17
2019-02-27T10:14:42.754Z,291.52
2019-02-27T10:15:43.096Z,288.55
2019-02-27T10:16:43.301Z,291.63
2019-02-27T10:17:43.781Z,291.58
2019-02-27T10:18:43.816Z,289.52
2019-02-27T10:19:44.075Z,289.12
2019-02-27T10:20:44.357Z,289.52
2019-02-27T10:21:45.288Z,289.73
2019-02-27T10:22:44.890Z,290.78
2019-02-27T10:23:45.193Z,289.97
2019-02-27T10:24:45.375Z,290.71
2019-02-27T10:25:45.678Z,290.84
2019-02-27T10:26:45.885Z,291.34
2019-02-27T10:27:47.271Z,289.73
2019-02-27T10:28:46.440Z,290.36
2019-02-27T10:29:47.960Z,291.96
2019-02-27T10:30:49.858Z,290.49
2019-02-27T10:31:47.273Z,289.17
2019-02-27T10:32:47.540Z,290.30
2019-02-27T10:33:47.714Z,289.49
2019-02-27T10:34:51.039Z,290.03
2019-02-27T10:35:49.273Z,290.04
2019-02-27T10:36:48.633Z,289.89
2019-02-27T10:37:50.433Z,289.63
2019-02-27T10:38:49.033Z,290.62
2019-02-27T10:39:49.325Z,291.32
2019-02-27T10:40:49.712Z,290.74
2019-02-27T10:41:50.602Z,291.55
2019-02-27T10:42:50.273Z,290.40
2019-02-27T10:43:50.354Z,290.02
2019-02-27T10:44:50.608Z,288.66
2019-02-27T10:45:50.913Z,288.65
2019-02-27T10:46:52.053Z,289.25
2019-02-27T10:47:51.412Z,291.10
2019-02-27T10:48:51.777Z,289.64
2019-02-27T10:49:51.911Z,290.80
2019-02-27T10:50:52.202Z,290.72
2019-02-27T10:51:52.431Z,288.96
2019-02-27T10:52:52.711Z,288.53
2019-02-27T10:53:52.937Z,290.67
2019-02-27T10:54:53.219Z,288.89
2019-02-27T10:55:53.510Z,287.42
2019-02-27T10:56:56.391Z,288.62
2019-02-27T10:57:53.994Z,288.71
2019-02-27T10:58:54.244Z,290.07
2019-02-27T10:59:54.493Z,287.04
2019-02-27T11:00:54.802Z,288.60
2019-02-27T11:01:55.028Z,288.09
2019-02-27T11:02:55.286Z,289.18
2019-02-27T11:03:55.547Z,289.65
2019-02-27T11:04:55.855Z,289.92
2019-02-27T11:05:56.055Z,287.00
2019-02-27T11:06:56.315Z,289.07
2019-02-27T11:07:56.584Z,287.97
2019-02-27T11:08:56.871Z,288.79
2019-02-27T11:09:57.118Z,287.76
2019-02-27T11:10:57.405Z,290.23
2019-02-27T11:11:57.634Z,289.75
2019-02-27T11:12:57.944Z,289.69
2019-02-27T11:13:58.262Z,289.83
2019-02-27T11:14:58.428Z,286.89
2019-02-27T11:15:58.690Z,289.33
2019-02-27T11:17:02.165Z,289.82
2019-02-27T11:18:04.199Z,286.89
2019-02-27T11:19:00.497Z,287.88
2019-02-27T11:19:59.738Z,288.08
2019-02-27T11:21:00.048Z,287.84
2019-02-27T11:22:00.389Z,285.53
2019-02-27T11:23:00.519Z,286.53
2019-02-27T11:24:01.018Z,287.43
2019-02-27T11:25:01.029Z,289.60
2019-02-27T11:26:01.327Z,286.63
2019-02-27T11:27:03.373Z,287.98
2019-02-27T11:28:01.828Z,286.63
2019-02-27T11:29:02.114Z,287.66
2019-02-27T11:30:03.012Z,286.75
2019-02-27T11:31:02.608Z,287.64
2019-02-27T11:32:02.862Z,285.73
2019-02-27T11:33:03.116Z,285.41
2019-02-27T11:34:05.124Z,285.70
2019-02-27T11:35:03.641Z,286.07
2019-02-27T11:36:05.598Z,287.33
2019-02-27T11:37:04.295Z,288.21
2019-02-27T11:38:04.446Z,287.45
2019-02-27T11:39:04.755Z,288.24
2019-02-27T11:40:05.375Z,286.91
2019-02-27T11:41:05.219Z,288.52
2019-02-27T11:42:05.461Z,287.03
2019-02-27T11:43:06.993Z,286.45
2019-02-27T11:44:05.996Z,285.62
2019-02-27T11:45:06.221Z,284.66
2019-02-27T11:46:06.570Z,286.10
2019-02-27T11:47:10.829Z,286.89
2019-02-27T11:48:07.056Z,285.75
2019-02-27T11:49:07.318Z,285.21
2019-02-27T11:50:07.547Z,285.10
2019-02-27T11:51:07.844Z,285.98
2019-02-27T11:52:08.083Z,286.06
2019-02-27T11:53:08.344Z,284.12
2019-02-27T11:54:09.173Z,287.28
2019-02-27T11:55:08.986Z,286.25
2019-02-27T11:56:09.156Z,287.69
2019-02-27T11:57:09.408Z,287.90
2019-02-27T11:58:09.673Z,286.75
2019-02-27T11:59:10.263Z,286.65
2019-02-27T12:00:10.185Z,285.67
2019-02-27T12:01:12.040Z,288.68
2019-02-27T12:02:10.696Z,287.89
2019-02-27T12:03:11.933Z,286.68
2019-02-27T12:04:11.239Z,290.48
2019-02-27T12:05:11.483Z,290.80
2019-02-27T12:06:11.747Z,293.24
2019-02-27T12:07:12.246Z,291.51
2019-02-27T12:08:12.276Z,292.07
2019-02-27T12:09:12.555Z,291.13
2019-02-27T12:10:12.801Z,289.42
2019-02-27T12:11:14.089Z,290.57
2019-02-27T12:12:13.299Z,286.76
2019-02-27T12:13:13.591Z,287.40
2019-02-27T12:14:13.865Z,287.33
2019-02-27T12:15:14.114Z,287.87
2019-02-27T12:16:15.248Z,286.14
2019-02-27T12:17:14.644Z,287.69
2019-02-27T12:18:14.895Z,288.45
2019-02-27T12:19:15.242Z,288.44
2019-02-27T12:20:18.049Z,286.50
2019-02-27T12:21:15.706Z,288.05
2019-02-27T12:22:15.962Z,288.62
2019-02-27T12:23:16.207Z,289.78
2019-02-27T12:24:18.941Z,291.00
2019-02-27T12:25:16.727Z,290.92
2019-02-27T12:26:17.008Z,288.45
2019-02-27T12:27:24.483Z,288.01
2019-02-27T12:28:18.548Z,286.46
2019-02-27T12:29:17.784Z,287.06
2019-02-27T12:30:18.026Z,287.94
2019-02-27T12:31:18.313Z,287.97